sensor_id;sensor_type;location;lat;lon;timestamp;P1;P2;P0
72307;PMS5003;60257;42.638;23.376;2023-04-28T00:00:17;12.00;11.00;9.67
72307;PMS5003;60257;42.638;23.376;2023-04-28T00:02:42;14.00;12.00;7.67
72307;PMS5003;60257;42.638;23.376;2023-04-28T00:05:09;17.00;13.67;10.00
72307;PMS5003;60257;42.638;23.376;2023-04-28T00:07:36;13.33;11.00;7.00
72307;PMS5003;60257;42.638;23.376;2023-04-28T00:10:01;13.33;13.33;9.67
72307;PMS5003;60257;42.638;23.376;2023-04-28T00:12:27;10.67;10.33;7.00
72307;PMS5003;60257;42.638;23.376;2023-04-28T00:14:52;13.33;13.33;8.33
72307;PMS5003;60257;42.638;23.376;2023-04-28T00:17:18;15.00;15.00;9.00
72307;PMS5003;60257;42.638;23.376;2023-04-28T00:19:43;14.67;14.67;9.67
72307;PMS5003;60257;42.638;23.376;2023-04-28T00:22:09;14.67;10.00;7.00
72307;PMS5003;60257;42.638;23.376;2023-04-28T00:24:34;10.00;10.00;7.00
72307;PMS5003;60257;42.638;23.376;2023-04-28T00:27:00;15.00;15.00;7.00
72307;PMS5003;60257;42.638;23.376;2023-04-28T00:29:27;10.00;10.00;7.00
72307;PMS5003;60257;42.638;23.376;2023-04-28T00:31:53;12.33;11.00;6.00
72307;PMS5003;60257;42.638;23.376;2023-04-28T00:34:19;16.67;14.67;6.33
72307;PMS5003;60257;42.638;23.376;2023-04-28T00:36:44;21.00;18.33;11.00
72307;PMS5003;60257;42.638;23.376;2023-04-28T00:39:10;14.33;14.00;9.00
72307;PMS5003;60257;42.638;23.376;2023-04-28T00:41:35;14.67;14.67;10.00
72307;PMS5003;60257;42.638;23.376;2023-04-28T00:44:01;17.00;17.00;9.00
72307;PMS5003;60257;42.638;23.376;2023-04-28T00:46:28;15.00;13.67;9.00
72307;PMS5003;60257;42.638;23.376;2023-04-28T00:48:55;14.67;11.00;9.00
72307;PMS5003;60257;42.638;23.376;2023-04-28T00:51:21;14.67;14.67;10.67
72307;PMS5003;60257;42.638;23.376;2023-04-28T00:53:47;6.67;6.67;2.00
72307;PMS5003;60257;42.638;23.376;2023-04-28T00:56:12;10.67;10.67;8.33
72307;PMS5003;60257;42.638;23.376;2023-04-28T00:58:38;9.00;9.00;7.00
72307;PMS5003;60257;42.638;23.376;2023-04-28T01:01:04;15.67;15.67;11.00
72307;PMS5003;60257;42.638;23.376;2023-04-28T01:03:35;16.00;15.00;10.00
72307;PMS5003;60257;42.638;23.376;2023-04-28T01:06:04;13.33;12.33;7.00
72307;PMS5003;60257;42.638;23.376;2023-04-28T01:08:31;14.33;14.33;9.67
72307;PMS5003;60257;42.638;23.376;2023-04-28T01:10:57;12.33;12.33;9.00
72307;PMS5003;60257;42.638;23.376;2023-04-28T01:13:23;16.67;14.00;7.00
72307;PMS5003;60257;42.638;23.376;2023-04-28T01:15:49;15.67;15.00;10.33
72307;PMS5003;60257;42.638;23.376;2023-04-28T01:18:15;9.00;9.00;6.00
72307;PMS5003;60257;42.638;23.376;2023-04-28T01:20:41;13.00;11.67;6.00
72307;PMS5003;60257;42.638;23.376;2023-04-28T01:23:13;10.33;10.33;8.33
72307;PMS5003;60257;42.638;23.376;2023-04-28T01:25:40;14.00;14.00;9.00
72307;PMS5003;60257;42.638;23.376;2023-04-28T01:28:06;18.00;17.00;11.00
72307;PMS5003;60257;42.638;23.376;2023-04-28T01:30:32;11.33;11.33;6.67
72307;PMS5003;60257;42.638;23.376;2023-04-28T01:32:57;12.33;11.67;9.67
72307;PMS5003;60257;42.638;23.376;2023-04-28T01:35:23;17.00;15.00;9.00
72307;PMS5003;60257;42.638;23.376;2023-04-28T01:37:48;11.67;11.67;7.00
72307;PMS5003;60257;42.638;23.376;2023-04-28T01:40:14;21.00;15.00;10.00
72307;PMS5003;60257;42.638;23.376;2023-04-28T01:42:39;11.67;11.67;7.33
72307;PMS5003;60257;42.638;23.376;2023-04-28T01:45:05;12.67;12.00;8.00
72307;PMS5003;60257;42.638;23.376;2023-04-28T01:47:31;19.00;14.00;9.00
72307;PMS5003;60257;42.638;23.376;2023-04-28T01:49:56;16.00;14.00;9.33
72307;PMS5003;60257;42.638;23.376;2023-04-28T01:52:22;15.33;15.33;10.00
72307;PMS5003;60257;42.638;23.376;2023-04-28T01:54:48;15.33;14.00;9.00
72307;PMS5003;60257;42.638;23.376;2023-04-28T01:57:14;15.33;13.00;8.67
72307;PMS5003;60257;42.638;23.376;2023-04-28T01:59:40;13.33;13.33;9.00
72307;PMS5003;60257;42.638;23.376;2023-04-28T02:02:05;15.00;13.00;10.67
72307;PMS5003;60257;42.638;23.376;2023-04-28T02:04:31;14.00;13.67;9.00
72307;PMS5003;60257;42.638;23.376;2023-04-28T02:06:56;14.00;14.00;10.00
72307;PMS5003;60257;42.638;23.376;2023-04-28T02:09:22;13.33;11.33;6.00
72307;PMS5003;60257;42.638;23.376;2023-04-28T02:11:48;13.33;13.00;9.33
72307;PMS5003;60257;42.638;23.376;2023-04-28T02:14:14;15.00;15.00;9.00
72307;PMS5003;60257;42.638;23.376;2023-04-28T02:16:39;16.67;16.67;11.00
72307;PMS5003;60257;42.638;23.376;2023-04-28T02:19:05;20.33;20.33;11.33
72307;PMS5003;60257;42.638;23.376;2023-04-28T02:21:30;17.00;17.00;13.00
72307;PMS5003;60257;42.638;23.376;2023-04-28T02:23:56;13.33;13.00;10.00
72307;PMS5003;60257;42.638;23.376;2023-04-28T02:26:21;13.00;11.33;5.67
72307;PMS5003;60257;42.638;23.376;2023-04-28T02:28:47;17.00;15.33;10.00
72307;PMS5003;60257;42.638;23.376;2023-04-28T02:31:13;14.67;14.67;11.33
72307;PMS5003;60257;42.638;23.376;2023-04-28T02:33:38;19.33;18.00;11.33
72307;PMS5003;60257;42.638;23.376;2023-04-28T02:36:06;16.00;14.00;9.00
72307;PMS5003;60257;42.638;23.376;2023-04-28T02:38:32;20.00;17.00;12.00
72307;PMS5003;60257;42.638;23.376;2023-04-28T02:40:58;17.67;14.67;10.00
72307;PMS5003;60257;42.638;23.376;2023-04-28T02:43:25;17.67;13.67;10.00
72307;PMS5003;60257;42.638;23.376;2023-04-28T02:45:52;14.00;13.00;10.00
72307;PMS5003;60257;42.638;23.376;2023-04-28T02:48:18;13.00;13.00;9.00
72307;PMS5003;60257;42.638;23.376;2023-04-28T02:50:43;16.00;15.00;10.00
72307;PMS5003;60257;42.638;23.376;2023-04-28T02:53:10;15.33;13.67;9.67
72307;PMS5003;60257;42.638;23.376;2023-04-28T02:55:36;17.00;16.67;10.00
72307;PMS5003;60257;42.638;23.376;2023-04-28T02:58:02;18.00;18.00;12.00
72307;PMS5003;60257;42.638;23.376;2023-04-28T03:00:27;17.33;14.00;9.00
72307;PMS5003;60257;42.638;23.376;2023-04-28T03:02:53;15.33;14.00;9.67
72307;PMS5003;60257;42.638;23.376;2023-04-28T03:05:18;21.33;17.00;10.00
72307;PMS5003;60257;42.638;23.376;2023-04-28T03:07:44;21.33;15.33;10.00
72307;PMS5003;60257;42.638;23.376;2023-04-28T03:10:10;17.00;17.00;10.00
72307;PMS5003;60257;42.638;23.376;2023-04-28T03:12:35;21.00;18.00;12.00
72307;PMS5003;60257;42.638;23.376;2023-04-28T03:15:01;14.67;14.67;9.00
72307;PMS5003;60257;42.638;23.376;2023-04-28T03:17:26;15.00;15.00;9.33
72307;PMS5003;60257;42.638;23.376;2023-04-28T03:19:52;18.67;16.00;10.00
72307;PMS5003;60257;42.638;23.376;2023-04-28T03:22:17;15.33;14.00;9.00
72307;PMS5003;60257;42.638;23.376;2023-04-28T03:24:42;13.33;13.33;9.67
72307;PMS5003;60257;42.638;23.376;2023-04-28T03:27:08;17.33;16.00;10.00
72307;PMS5003;60257;42.638;23.376;2023-04-28T03:29:34;14.00;13.00;10.00
72307;PMS5003;60257;42.638;23.376;2023-04-28T03:32:00;17.33;17.00;10.00
72307;PMS5003;60257;42.638;23.376;2023-04-28T03:34:25;17.00;17.00;12.00
72307;PMS5003;60257;42.638;23.376;2023-04-28T03:36:51;20.00;18.00;12.00
72307;PMS5003;60257;42.638;23.376;2023-04-28T03:39:16;17.00;14.00;9.33
72307;PMS5003;60257;42.638;23.376;2023-04-28T03:41:42;17.50;15.25;9.75
72307;PMS5003;60257;42.638;23.376;2023-04-28T03:44:07;15.00;14.00;8.67
72307;PMS5003;60257;42.638;23.376;2023-04-28T03:46:33;17.00;16.00;10.00
72307;PMS5003;60257;42.638;23.376;2023-04-28T03:48:58;18.00;16.67;10.67
72307;PMS5003;60257;42.638;23.376;2023-04-28T03:51:26;18.00;14.25;8.75
72307;PMS5003;60257;42.638;23.376;2023-04-28T03:53:59;17.00;15.00;10.00
72307;PMS5003;60257;42.638;23.376;2023-04-28T03:56:26;13.67;13.67;10.00
72307;PMS5003;60257;42.638;23.376;2023-04-28T03:58:51;15.67;13.00;9.00
72307;PMS5003;60257;42.638;23.376;2023-04-28T04:01:17;15.67;15.67;12.00
72307;PMS5003;60257;42.638;23.376;2023-04-28T04:03:42;21.67;21.67;13.33
72307;PMS5003;60257;42.638;23.376;2023-04-28T04:06:08;21.00;21.00;14.00
72307;PMS5003;60257;42.638;23.376;2023-04-28T04:08:33;28.50;27.00;14.75
72307;PMS5003;60257;42.638;23.376;2023-04-28T04:10:59;17.00;17.00;11.33
72307;PMS5003;60257;42.638;23.376;2023-04-28T04:13:25;13.67;13.67;9.67
72307;PMS5003;60257;42.638;23.376;2023-04-28T04:15:50;16.67;15.67;10.33
72307;PMS5003;60257;42.638;23.376;2023-04-28T04:18:16;16.67;16.67;10.00
72307;PMS5003;60257;42.638;23.376;2023-04-28T04:20:42;17.67;15.33;10.67
72307;PMS5003;60257;42.638;23.376;2023-04-28T04:23:08;18.33;15.00;10.00
72307;PMS5003;60257;42.638;23.376;2023-04-28T04:25:33;14.00;11.00;7.67
72307;PMS5003;60257;42.638;23.376;2023-04-28T04:27:59;17.67;15.67;8.33
72307;PMS5003;60257;42.638;23.376;2023-04-28T04:30:25;15.67;15.67;10.67
72307;PMS5003;60257;42.638;23.376;2023-04-28T04:32:50;18.67;15.00;10.00
72307;PMS5003;60257;42.638;23.376;2023-04-28T04:35:16;20.33;17.33;11.00
72307;PMS5003;60257;42.638;23.376;2023-04-28T04:37:41;15.00;15.00;9.33
72307;PMS5003;60257;42.638;23.376;2023-04-28T04:40:07;17.33;15.00;9.33
72307;PMS5003;60257;42.638;23.376;2023-04-28T04:42:33;15.00;15.00;10.67
72307;PMS5003;60257;42.638;23.376;2023-04-28T04:44:58;18.67;18.67;13.00
72307;PMS5003;60257;42.638;23.376;2023-04-28T04:47:24;18.67;15.33;10.00
72307;PMS5003;60257;42.638;23.376;2023-04-28T04:49:49;18.00;16.67;11.00
72307;PMS5003;60257;42.638;23.376;2023-04-28T04:52:16;19.00;17.67;11.00
72307;PMS5003;60257;42.638;23.376;2023-04-28T04:54:41;15.67;15.33;10.33
72307;PMS5003;60257;42.638;23.376;2023-04-28T04:57:07;32.00;28.75;19.25
72307;PMS5003;60257;42.638;23.376;2023-04-28T04:59:32;16.00;16.00;11.00
72307;PMS5003;60257;42.638;23.376;2023-04-28T05:01:58;14.33;14.33;10.33
72307;PMS5003;60257;42.638;23.376;2023-04-28T05:04:23;18.33;16.33;11.00
72307;PMS5003;60257;42.638;23.376;2023-04-28T05:06:49;14.67;14.67;10.00
72307;PMS5003;60257;42.638;23.376;2023-04-28T05:09:15;16.33;16.33;10.00
72307;PMS5003;60257;42.638;23.376;2023-04-28T05:11:41;20.33;19.00;14.00
72307;PMS5003;60257;42.638;23.376;2023-04-28T05:14:06;15.33;15.33;11.33
72307;PMS5003;60257;42.638;23.376;2023-04-28T05:16:32;24.67;23.00;14.33
72307;PMS5003;60257;42.638;23.376;2023-04-28T05:18:57;20.33;19.00;14.00
72307;PMS5003;60257;42.638;23.376;2023-04-28T05:21:23;17.00;17.00;11.00
72307;PMS5003;60257;42.638;23.376;2023-04-28T05:23:49;19.00;15.67;11.00
72307;PMS5003;60257;42.638;23.376;2023-04-28T05:26:14;14.00;12.00;10.00
72307;PMS5003;60257;42.638;23.376;2023-04-28T05:28:40;16.00;16.00;11.00
72307;PMS5003;60257;42.638;23.376;2023-04-28T05:31:06;14.00;14.00;11.00
72307;PMS5003;60257;42.638;23.376;2023-04-28T05:33:32;17.33;16.00;14.00
72307;PMS5003;60257;42.638;23.376;2023-04-28T05:35:57;15.33;13.67;8.67
72307;PMS5003;60257;42.638;23.376;2023-04-28T05:38:23;20.00;17.00;12.00
72307;PMS5003;60257;42.638;23.376;2023-04-28T05:40:49;19.33;17.67;11.00
72307;PMS5003;60257;42.638;23.376;2023-04-28T05:43:15;16.33;15.33;12.00
72307;PMS5003;60257;42.638;23.376;2023-04-28T05:45:40;16.00;16.00;11.33
72307;PMS5003;60257;42.638;23.376;2023-04-28T05:48:06;21.00;17.67;12.00
72307;PMS5003;60257;42.638;23.376;2023-04-28T05:50:31;17.33;17.00;10.67
72307;PMS5003;60257;42.638;23.376;2023-04-28T05:52:57;20.00;15.00;8.00
72307;PMS5003;60257;42.638;23.376;2023-04-28T05:55:23;17.00;13.67;10.00
72307;PMS5003;60257;42.638;23.376;2023-04-28T05:57:48;17.00;17.00;13.00
72307;PMS5003;60257;42.638;23.376;2023-04-28T06:00:14;17.00;17.00;11.67
72307;PMS5003;60257;42.638;23.376;2023-04-28T06:02:40;15.67;15.67;10.67
72307;PMS5003;60257;42.638;23.376;2023-04-28T06:05:05;18.00;16.00;11.00
72307;PMS5003;60257;42.638;23.376;2023-04-28T06:07:31;20.00;19.67;11.67
72307;PMS5003;60257;42.638;23.376;2023-04-28T06:09:57;13.00;12.00;6.00
72307;PMS5003;60257;42.638;23.376;2023-04-28T06:12:22;16.00;14.33;10.33
72307;PMS5003;60257;42.638;23.376;2023-04-28T06:14:48;16.00;14.67;10.00
72307;PMS5003;60257;42.638;23.376;2023-04-28T06:17:13;16.00;16.00;11.00
72307;PMS5003;60257;42.638;23.376;2023-04-28T06:19:39;15.33;15.33;11.00
72307;PMS5003;60257;42.638;23.376;2023-04-28T06:22:04;20.00;18.00;12.67
72307;PMS5003;60257;42.638;23.376;2023-04-28T06:24:30;15.33;14.33;10.33
72307;PMS5003;60257;42.638;23.376;2023-04-28T06:26:55;14.33;14.33;10.00
72307;PMS5003;60257;42.638;23.376;2023-04-28T06:29:21;13.00;13.00;8.67
72307;PMS5003;60257;42.638;23.376;2023-04-28T06:31:48;17.00;16.00;11.00
72307;PMS5003;60257;42.638;23.376;2023-04-28T06:34:13;11.33;11.00;10.00
72307;PMS5003;60257;42.638;23.376;2023-04-28T06:36:39;14.00;13.67;10.33
72307;PMS5003;60257;42.638;23.376;2023-04-28T06:39:05;14.33;14.33;11.33
72307;PMS5003;60257;42.638;23.376;2023-04-28T06:41:30;14.67;14.33;8.33
72307;PMS5003;60257;42.638;23.376;2023-04-28T06:43:56;14.67;13.67;11.00
72307;PMS5003;60257;42.638;23.376;2023-04-28T06:46:21;14.33;14.33;8.33
72307;PMS5003;60257;42.638;23.376;2023-04-28T06:48:47;16.33;14.67;11.00
72307;PMS5003;60257;42.638;23.376;2023-04-28T06:51:13;14.33;11.67;8.67
72307;PMS5003;60257;42.638;23.376;2023-04-28T06:53:38;15.33;15.33;9.00
72307;PMS5003;60257;42.638;23.376;2023-04-28T06:56:04;13.33;13.33;9.00
72307;PMS5003;60257;42.638;23.376;2023-04-28T06:58:30;17.00;14.00;9.00
72307;PMS5003;60257;42.638;23.376;2023-04-28T07:00:56;27.00;23.00;15.33
72307;PMS5003;60257;42.638;23.376;2023-04-28T07:03:21;15.33;14.33;9.67
72307;PMS5003;60257;42.638;23.376;2023-04-28T07:05:47;16.33;13.00;9.00
72307;PMS5003;60257;42.638;23.376;2023-04-28T07:08:12;18.00;18.00;11.00
72307;PMS5003;60257;42.638;23.376;2023-04-28T07:10:38;14.67;14.00;8.33
72307;PMS5003;60257;42.638;23.376;2023-04-28T07:13:03;20.33;16.67;12.33
72307;PMS5003;60257;42.638;23.376;2023-04-28T07:15:29;13.00;13.00;9.00
72307;PMS5003;60257;42.638;23.376;2023-04-28T07:17:55;15.00;11.67;9.00
72307;PMS5003;60257;42.638;23.376;2023-04-28T07:20:21;17.00;17.00;12.33
72307;PMS5003;60257;42.638;23.376;2023-04-28T07:22:46;15.33;14.00;12.00
72307;PMS5003;60257;42.638;23.376;2023-04-28T07:25:11;17.00;15.33;9.00
72307;PMS5003;60257;42.638;23.376;2023-04-28T07:27:37;15.00;14.67;10.00
72307;PMS5003;60257;42.638;23.376;2023-04-28T07:30:03;16.33;15.33;10.00
72307;PMS5003;60257;42.638;23.376;2023-04-28T07:32:29;19.00;18.67;10.00
72307;PMS5003;60257;42.638;23.376;2023-04-28T07:34:54;16.00;16.00;13.00
72307;PMS5003;60257;42.638;23.376;2023-04-28T07:37:19;16.67;16.33;10.00
72307;PMS5003;60257;42.638;23.376;2023-04-28T07:39:45;14.67;14.67;10.00
72307;PMS5003;60257;42.638;23.376;2023-04-28T07:42:11;19.00;15.67;11.33
72307;PMS5003;60257;42.638;23.376;2023-04-28T07:44:36;14.00;14.00;9.00
72307;PMS5003;60257;42.638;23.376;2023-04-28T07:47:02;17.00;15.00;10.00
72307;PMS5003;60257;42.638;23.376;2023-04-28T07:49:28;16.00;16.00;11.33
72307;PMS5003;60257;42.638;23.376;2023-04-28T07:51:53;14.67;13.67;9.00
72307;PMS5003;60257;42.638;23.376;2023-04-28T07:54:20;17.33;17.33;10.00
72307;PMS5003;60257;42.638;23.376;2023-04-28T07:56:46;14.67;13.67;9.00
72307;PMS5003;60257;42.638;23.376;2023-04-28T07:59:12;14.67;14.67;9.67
72307;PMS5003;60257;42.638;23.376;2023-04-28T08:01:38;14.67;14.00;10.00
72307;PMS5003;60257;42.638;23.376;2023-04-28T08:04:04;17.33;15.33;9.67
72307;PMS5003;60257;42.638;23.376;2023-04-28T08:06:29;14.33;14.33;9.00
72307;PMS5003;60257;42.638;23.376;2023-04-28T08:08:55;14.67;14.33;10.00
72307;PMS5003;60257;42.638;23.376;2023-04-28T08:11:20;14.00;11.00;8.00
72307;PMS5003;60257;42.638;23.376;2023-04-28T08:13:46;11.00;11.00;8.00
72307;PMS5003;60257;42.638;23.376;2023-04-28T08:16:13;15.00;15.00;10.00
72307;PMS5003;60257;42.638;23.376;2023-04-28T08:18:38;19.67;15.00;10.00
72307;PMS5003;60257;42.638;23.376;2023-04-28T08:21:04;15.33;15.33;10.67
72307;PMS5003;60257;42.638;23.376;2023-04-28T08:23:30;19.67;15.33;10.00
72307;PMS5003;60257;42.638;23.376;2023-04-28T08:25:56;12.33;11.00;7.33
72307;PMS5003;60257;42.638;23.376;2023-04-28T08:28:22;11.00;11.00;8.33
72307;PMS5003;60257;42.638;23.376;2023-04-28T08:30:47;10.67;10.67;8.67
72307;PMS5003;60257;42.638;23.376;2023-04-28T08:33:13;15.00;14.67;10.00
72307;PMS5003;60257;42.638;23.376;2023-04-28T08:35:38;17.00;17.00;11.00
72307;PMS5003;60257;42.638;23.376;2023-04-28T08:38:05;16.67;16.67;11.67
72307;PMS5003;60257;42.638;23.376;2023-04-28T08:40:31;18.00;15.67;9.33
72307;PMS5003;60257;42.638;23.376;2023-04-28T08:42:57;15.00;15.00;11.00
72307;PMS5003;60257;42.638;23.376;2023-04-28T08:45:23;16.33;15.00;10.67
72307;PMS5003;60257;42.638;23.376;2023-04-28T08:47:50;14.67;11.00;7.33
72307;PMS5003;60257;42.638;23.376;2023-04-28T08:50:18;14.67;14.67;9.00
72307;PMS5003;60257;42.638;23.376;2023-04-28T08:52:46;16.00;16.00;11.00
72307;PMS5003;60257;42.638;23.376;2023-04-28T08:55:12;14.67;14.67;10.67
72307;PMS5003;60257;42.638;23.376;2023-04-28T08:57:39;18.00;17.00;11.00
72307;PMS5003;60257;42.638;23.376;2023-04-28T09:00:07;14.00;14.00;8.00
72307;PMS5003;60257;42.638;23.376;2023-04-28T09:02:33;11.33;11.00;8.67
72307;PMS5003;60257;42.638;23.376;2023-04-28T09:05:01;10.33;10.33;7.00
72307;PMS5003;60257;42.638;23.376;2023-04-28T09:07:28;8.00;8.00;5.67
72307;PMS5003;60257;42.638;23.376;2023-04-28T09:12:51;16.67;15.33;9.33
72307;PMS5003;60257;42.638;23.376;2023-04-28T09:15:28;17.33;16.67;11.67
72307;PMS5003;60257;42.638;23.376;2023-04-28T09:18:00;17.00;16.00;11.00
72307;PMS5003;60257;42.638;23.376;2023-04-28T09:20:28;16.00;13.00;8.67
72307;PMS5003;60257;42.638;23.376;2023-04-28T09:22:55;10.00;9.33;7.00
72307;PMS5003;60257;42.638;23.376;2023-04-28T09:25:36;7.00;7.00;4.00
72307;PMS5003;60257;42.638;23.376;2023-04-28T09:28:11;13.00;12.67;9.00
72307;PMS5003;60257;42.638;23.376;2023-04-28T09:30:44;17.33;12.33;10.00
72307;PMS5003;60257;42.638;23.376;2023-04-28T09:33:09;16.33;14.67;9.67
72307;PMS5003;60257;42.638;23.376;2023-04-28T09:35:41;10.00;10.00;8.00
72307;PMS5003;60257;42.638;23.376;2023-04-28T09:38:09;13.00;12.00;9.00
72307;PMS5003;60257;42.638;23.376;2023-04-28T09:40:48;9.67;9.67;8.00
72307;PMS5003;60257;42.638;23.376;2023-04-28T09:43:25;7.33;6.00;3.67
72307;PMS5003;60257;42.638;23.376;2023-04-28T09:45:55;11.00;11.00;8.67
72307;PMS5003;60257;42.638;23.376;2023-04-28T09:48:29;14.00;13.00;7.67
72307;PMS5003;60257;42.638;23.376;2023-04-28T09:51:01;11.00;9.67;5.33
72307;PMS5003;60257;42.638;23.376;2023-04-28T09:53:28;11.00;10.00;7.00
72307;PMS5003;60257;42.638;23.376;2023-04-28T09:55:55;13.67;12.67;9.00
72307;PMS5003;60257;42.638;23.376;2023-04-28T09:58:22;17.33;16.67;10.00
72307;PMS5003;60257;42.638;23.376;2023-04-28T10:00:56;13.33;13.33;7.00
72307;PMS5003;60257;42.638;23.376;2023-04-28T10:03:26;12.33;11.00;7.67
72307;PMS5003;60257;42.638;23.376;2023-04-28T10:05:53;15.67;10.67;8.00
72307;PMS5003;60257;42.638;23.376;2023-04-28T10:08:20;10.67;10.00;7.00
72307;PMS5003;60257;42.638;23.376;2023-04-28T10:10:47;13.67;12.67;9.33
72307;PMS5003;60257;42.638;23.376;2023-04-28T10:13:19;14.00;14.00;8.33
72307;PMS5003;60257;42.638;23.376;2023-04-28T10:15:46;7.33;7.33;5.00
72307;PMS5003;60257;42.638;23.376;2023-04-28T10:18:13;11.33;11.33;7.67
72307;PMS5003;60257;42.638;23.376;2023-04-28T10:20:43;7.33;7.33;5.67
72307;PMS5003;60257;42.638;23.376;2023-04-28T10:25:59;12.67;10.67;6.00
72307;PMS5003;60257;42.638;23.376;2023-04-28T10:28:27;11.00;11.00;6.00
72307;PMS5003;60257;42.638;23.376;2023-04-28T10:31:12;7.00;7.00;5.00
72307;PMS5003;60257;42.638;23.376;2023-04-28T10:33:47;8.33;8.33;5.67
72307;PMS5003;60257;42.638;23.376;2023-04-28T10:39:11;11.67;11.00;6.00
72307;PMS5003;60257;42.638;23.376;2023-04-28T10:41:37;11.00;11.00;6.00
72307;PMS5003;60257;42.638;23.376;2023-04-28T10:50:02;10.00;10.00;7.67
72307;PMS5003;60257;42.638;23.376;2023-04-28T11:00:40;11.33;11.33;6.67
72307;PMS5003;60257;42.638;23.376;2023-04-28T11:03:06;12.33;11.00;7.00
72307;PMS5003;60257;42.638;23.376;2023-04-28T11:05:31;9.33;9.33;7.00
72307;PMS5003;60257;42.638;23.376;2023-04-28T11:13:39;11.00;11.00;6.00
72307;PMS5003;60257;42.638;23.376;2023-04-28T11:16:06;10.00;9.33;5.33
72307;PMS5003;60257;42.638;23.376;2023-04-28T11:19:14;8.00;8.00;5.33
72307;PMS5003;60257;42.638;23.376;2023-04-28T11:21:30;13.33;10.00;6.00
72307;PMS5003;60257;42.638;23.376;2023-04-28T11:23:57;11.00;11.00;7.00
72307;PMS5003;60257;42.638;23.376;2023-04-28T11:26:23;10.67;10.33;5.00
72307;PMS5003;60257;42.638;23.376;2023-04-28T11:28:55;7.67;6.67;4.00
72307;PMS5003;60257;42.638;23.376;2023-04-28T11:31:23;10.33;9.00;7.00
72307;PMS5003;60257;42.638;23.376;2023-04-28T11:33:53;5.67;5.67;4.00
72307;PMS5003;60257;42.638;23.376;2023-04-28T11:36:23;8.67;8.67;6.00
72307;PMS5003;60257;42.638;23.376;2023-04-28T11:38:49;6.00;6.00;4.00
72307;PMS5003;60257;42.638;23.376;2023-04-28T11:41:15;8.00;7.33;5.00
72307;PMS5003;60257;42.638;23.376;2023-04-28T11:43:40;8.67;7.67;5.00
72307;PMS5003;60257;42.638;23.376;2023-04-28T11:46:06;7.00;7.00;3.00
72307;PMS5003;60257;42.638;23.376;2023-04-28T11:48:32;9.67;9.00;6.00
72307;PMS5003;60257;42.638;23.376;2023-04-28T11:50:57;9.00;9.00;5.33
72307;PMS5003;60257;42.638;23.376;2023-04-28T11:53:41;6.67;6.33;5.33
72307;PMS5003;60257;42.638;23.376;2023-04-28T11:56:08;10.67;10.67;6.00
72307;PMS5003;60257;42.638;23.376;2023-04-28T11:58:34;7.67;7.67;5.33
72307;PMS5003;60257;42.638;23.376;2023-04-28T12:01:12;8.00;7.00;5.00
72307;PMS5003;60257;42.638;23.376;2023-04-28T12:03:43;7.75;7.75;5.50
72307;PMS5003;60257;42.638;23.376;2023-04-28T12:06:09;6.25;6.25;4.00
72307;PMS5003;60257;42.638;23.376;2023-04-28T12:08:35;9.75;9.75;5.25
72307;PMS5003;60257;42.638;23.376;2023-04-28T12:11:07;9.75;8.75;5.50
72307;PMS5003;60257;42.638;23.376;2023-04-28T12:13:35;6.67;6.67;4.67
72307;PMS5003;60257;42.638;23.376;2023-04-28T12:16:04;8.75;8.75;5.75
72307;PMS5003;60257;42.638;23.376;2023-04-28T12:18:34;7.00;7.00;5.25
72307;PMS5003;60257;42.638;23.376;2023-04-28T12:21:00;8.00;6.75;6.00
72307;PMS5003;60257;42.638;23.376;2023-04-28T12:23:33;9.67;7.67;5.00
72307;PMS5003;60257;42.638;23.376;2023-04-28T12:26:00;8.00;7.25;5.50
72307;PMS5003;60257;42.638;23.376;2023-04-28T12:28:38;9.25;8.25;5.25
72307;PMS5003;60257;42.638;23.376;2023-04-28T12:31:06;6.00;6.00;4.00
72307;PMS5003;60257;42.638;23.376;2023-04-28T12:33:33;8.50;8.50;6.00
72307;PMS5003;60257;42.638;23.376;2023-04-28T12:36:02;5.50;5.00;4.00
72307;PMS5003;60257;42.638;23.376;2023-04-28T12:38:28;8.75;8.00;5.50
72307;PMS5003;60257;42.638;23.376;2023-04-28T12:40:54;8.00;7.00;5.00
72307;PMS5003;60257;42.638;23.376;2023-04-28T12:43:20;10.25;8.50;6.00
72307;PMS5003;60257;42.638;23.376;2023-04-28T12:45:48;8.00;8.00;5.00
72307;PMS5003;60257;42.638;23.376;2023-04-28T12:48:17;10.00;7.50;5.00
72307;PMS5003;60257;42.638;23.376;2023-04-28T12:50:43;10.75;10.75;7.25
72307;PMS5003;60257;42.638;23.376;2023-04-28T12:53:09;15.67;14.33;8.00
72307;PMS5003;60257;42.638;23.376;2023-04-28T12:55:35;9.75;9.75;6.00
72307;PMS5003;60257;42.638;23.376;2023-04-28T12:58:03;9.75;8.75;6.75
72307;PMS5003;60257;42.638;23.376;2023-04-28T13:00:29;9.25;9.25;6.00
72307;PMS5003;60257;42.638;23.376;2023-04-28T13:02:55;24.67;21.67;14.00
72307;PMS5003;60257;42.638;23.376;2023-04-28T13:05:21;8.00;8.00;6.00
72307;PMS5003;60257;42.638;23.376;2023-04-28T13:07:47;7.50;7.50;4.50
72307;PMS5003;60257;42.638;23.376;2023-04-28T13:10:14;10.25;10.25;7.00
72307;PMS5003;60257;42.638;23.376;2023-04-28T13:12:39;8.25;8.25;5.00
72307;PMS5003;60257;42.638;23.376;2023-04-28T13:15:05;9.50;9.50;4.75
72307;PMS5003;60257;42.638;23.376;2023-04-28T13:17:32;5.75;5.75;4.00
72307;PMS5003;60257;42.638;23.376;2023-04-28T13:19:58;9.50;9.25;6.00
72307;PMS5003;60257;42.638;23.376;2023-04-28T13:22:25;9.67;8.00;6.67
72307;PMS5003;60257;42.638;23.376;2023-04-28T13:24:51;15.33;14.67;9.00
72307;PMS5003;60257;42.638;23.376;2023-04-28T13:27:16;12.50;10.50;7.50
72307;PMS5003;60257;42.638;23.376;2023-04-28T13:29:43;6.75;6.75;5.00
72307;PMS5003;60257;42.638;23.376;2023-04-28T13:32:08;9.00;8.25;4.00
72307;PMS5003;60257;42.638;23.376;2023-04-28T13:34:34;6.00;6.00;5.00
72307;PMS5003;60257;42.638;23.376;2023-04-28T13:36:59;6.75;6.75;4.75
72307;PMS5003;60257;42.638;23.376;2023-04-28T13:39:25;9.00;8.50;5.75
72307;PMS5003;60257;42.638;23.376;2023-04-28T13:41:50;5.50;5.50;4.50
72307;PMS5003;60257;42.638;23.376;2023-04-28T13:44:16;6.25;6.25;4.00
72307;PMS5003;60257;42.638;23.376;2023-04-28T13:46:42;5.00;5.00;3.00
72307;PMS5003;60257;42.638;23.376;2023-04-28T13:49:11;7.50;7.50;6.25
72307;PMS5003;60257;42.638;23.376;2023-04-28T13:51:37;8.00;8.00;5.00
72307;PMS5003;60257;42.638;23.376;2023-04-28T13:54:03;7.50;7.50;5.00
72307;PMS5003;60257;42.638;23.376;2023-04-28T13:56:32;9.25;7.25;4.00
72307;PMS5003;60257;42.638;23.376;2023-04-28T13:58:58;7.75;7.75;5.00
72307;PMS5003;60257;42.638;23.376;2023-04-28T14:01:24;7.00;7.00;4.00
72307;PMS5003;60257;42.638;23.376;2023-04-28T14:03:49;8.00;7.00;5.00
72307;PMS5003;60257;42.638;23.376;2023-04-28T14:06:15;7.00;7.00;5.00
72307;PMS5003;60257;42.638;23.376;2023-04-28T14:08:40;2.25;2.25;2.25
72307;PMS5003;60257;42.638;23.376;2023-04-28T14:11:06;10.00;8.50;5.75